sensor_id;sensor_type;location;lat;lon;timestamp;pressure;altitude;pressure_sealevel;temperature;humidity
8416;BME280;4245;42.120;24.732;2022-07-23T00:02:25;99397.38;;;25.71;58.99
8416;BME280;4245;42.120;24.732;2022-07-23T00:04:52;99394.84;;;25.63;59.56
8416;BME280;4245;42.120;24.732;2022-07-23T00:07:19;99392.31;;;25.61;59.68
8416;BME280;4245;42.120;24.732;2022-07-23T00:09:45;99392.34;;;25.68;59.70
8416;BME280;4245;42.120;24.732;2022-07-23T00:12:12;99391.13;;;25.70;60.08
8416;BME280;4245;42.120;24.732;2022-07-23T00:14:39;99392.59;;;25.73;59.72
8416;BME280;4245;42.120;24.732;2022-07-23T00:17:06;99397.13;;;25.59;60.40
8416;BME280;4245;42.120;24.732;2022-07-23T00:19:34;99398.16;;;25.58;60.96
8416;BME280;4245;42.120;24.732;2022-07-23T00:22:01;99392.03;;;25.49;61.36
8416;BME280;4245;42.120;24.732;2022-07-23T00:24:28;99389.25;;;25.43;61.97
8416;BME280;4245;42.120;24.732;2022-07-23T00:26:55;99391.09;;;25.36;62.17
8416;BME280;4245;42.120;24.732;2022-07-23T00:29:21;99392.25;;;25.20;62.93
8416;BME280;4245;42.120;24.732;2022-07-23T00:31:48;99392.44;;;25.19;63.45
8416;BME280;4245;42.120;24.732;2022-07-23T00:34:15;99394.13;;;25.20;63.01
8416;BME280;4245;42.120;24.732;2022-07-23T00:36:43;99395.63;;;25.22;62.97
8416;BME280;4245;42.120;24.732;2022-07-23T00:39:10;99389.09;;;25.17;63.18
8416;BME280;4245;42.120;24.732;2022-07-23T00:41:37;99389.06;;;24.89;63.59
8416;BME280;4245;42.120;24.732;2022-07-23T00:44:19;99399.63;;;24.77;64.56
8416;BME280;4245;42.120;24.732;2022-07-23T00:46:48;99397.78;;;24.84;64.34
8416;BME280;4245;42.120;24.732;2022-07-23T00:49:15;99394.50;;;24.89;64.38
8416;BME280;4245;42.120;24.732;2022-07-23T00:51:43;99404.66;;;24.80;64.81
8416;BME280;4245;42.120;24.732;2022-07-23T00:54:10;99404.91;;;24.85;64.33
8416;BME280;4245;42.120;24.732;2022-07-23T00:56:37;99405.69;;;24.79;64.18
8416;BME280;4245;42.120;24.732;2022-07-23T00:59:06;99405.31;;;24.61;64.80
8416;BME280;4245;42.120;24.732;2022-07-23T01:01:33;99401.53;;;24.41;64.92
8416;BME280;4245;42.120;24.732;2022-07-23T01:03:59;99407.88;;;24.27;66.12
8416;BME280;4245;42.120;24.732;2022-07-23T01:06:26;99403.69;;;24.24;66.70
8416;BME280;4245;42.120;24.732;2022-07-23T01:08:55;99403.94;;;24.29;65.99
8416;BME280;4245;42.120;24.732;2022-07-23T01:11:23;99399.41;;;24.36;65.84
8416;BME280;4245;42.120;24.732;2022-07-23T01:13:50;99395.59;;;24.52;65.27
8416;BME280;4245;42.120;24.732;2022-07-23T01:16:16;99394.69;;;24.66;64.50
8416;BME280;4245;42.120;24.732;2022-07-23T01:18:43;99393.53;;;24.75;63.77
8416;BME280;4245;42.120;24.732;2022-07-23T01:21:11;99392.50;;;24.76;63.56
8416;BME280;4245;42.120;24.732;2022-07-23T01:23:41;99399.47;;;24.85;62.81
8416;BME280;4245;42.120;24.732;2022-07-23T01:26:07;99398.06;;;24.89;62.65
8416;BME280;4245;42.120;24.732;2022-07-23T01:28:34;99393.72;;;24.95;62.46
8416;BME280;4245;42.120;24.732;2022-07-23T01:31:01;99394.41;;;25.03;62.11
8416;BME280;4245;42.120;24.732;2022-07-23T01:33:28;99398.63;;;25.06;61.46
8416;BME280;4245;42.120;24.732;2022-07-23T01:35:55;99406.09;;;24.97;61.36
8416;BME280;4245;42.120;24.732;2022-07-23T01:38:22;99396.00;;;24.91;61.61
8416;BME280;4245;42.120;24.732;2022-07-23T01:40:50;99400.50;;;24.84;61.51
8416;BME280;4245;42.120;24.732;2022-07-23T01:43:17;99399.47;;;24.85;61.07
8416;BME280;4245;42.120;24.732;2022-07-23T01:45:44;99408.34;;;24.94;61.07
8416;BME280;4245;42.120;24.732;2022-07-23T01:48:10;99401.44;;;24.91;60.72
8416;BME280;4245;42.120;24.732;2022-07-23T01:50:37;99396.41;;;24.88;60.04
8416;BME280;4245;42.120;24.732;2022-07-23T01:53:04;99402.22;;;24.64;60.63
8416;BME280;4245;42.120;24.732;2022-07-23T01:55:31;99397.81;;;24.42;62.00
8416;BME280;4245;42.120;24.732;2022-07-23T01:57:59;99394.69;;;24.45;61.41
8416;BME280;4245;42.120;24.732;2022-07-23T02:00:26;99397.28;;;24.32;61.76
8416;BME280;4245;42.120;24.732;2022-07-23T02:02:53;99398.88;;;23.90;63.22
8416;BME280;4245;42.120;24.732;2022-07-23T02:05:20;99396.22;;;23.82;63.24
8416;BME280;4245;42.120;24.732;2022-07-23T02:07:47;99397.59;;;23.71;63.50
8416;BME280;4245;42.120;24.732;2022-07-23T02:10:13;99398.78;;;23.69;64.47
8416;BME280;4245;42.120;24.732;2022-07-23T02:12:40;99393.91;;;23.79;64.74
8416;BME280;4245;42.120;24.732;2022-07-23T02:15:08;99392.50;;;23.83;63.48
8416;BME280;4245;42.120;24.732;2022-07-23T02:17:35;99396.53;;;23.72;64.52
8416;BME280;4245;42.120;24.732;2022-07-23T02:20:03;99394.94;;;23.78;63.60
8416;BME280;4245;42.120;24.732;2022-07-23T02:22:30;99398.75;;;23.83;63.79
8416;BME280;4245;42.120;24.732;2022-07-23T02:24:57;99397.63;;;23.93;63.97
8416;BME280;4245;42.120;24.732;2022-07-23T02:27:23;99394.34;;;23.97;63.58
8416;BME280;4245;42.120;24.732;2022-07-23T02:29:50;99389.56;;;23.99;63.83
8416;BME280;4245;42.120;24.732;2022-07-23T02:32:18;99391.75;;;23.89;63.83
8416;BME280;4245;42.120;24.732;2022-07-23T02:34:46;99398.28;;;23.95;63.44
8416;BME280;4245;42.120;24.732;2022-07-23T02:37:13;99396.75;;;24.07;62.60
8416;BME280;4245;42.120;24.732;2022-07-23T02:39:40;99397.22;;;24.10;60.31
8416;BME280;4245;42.120;24.732;2022-07-23T02:42:07;99396.03;;;23.98;62.65
8416;BME280;4245;42.120;24.732;2022-07-23T02:44:34;99400.97;;;24.09;61.49
8416;BME280;4245;42.120;24.732;2022-07-23T02:47:01;99396.31;;;23.89;62.25
8416;BME280;4245;42.120;24.732;2022-07-23T02:49:29;99396.78;;;23.92;60.68
8416;BME280;4245;42.120;24.732;2022-07-23T02:51:56;99391.00;;;23.80;62.56
8416;BME280;4245;42.120;24.732;2022-07-23T02:54:23;99399.84;;;24.04;62.29
8416;BME280;4245;42.120;24.732;2022-07-23T02:56:49;99399.94;;;24.10;61.36
8416;BME280;4245;42.120;24.732;2022-07-23T02:59:17;99406.31;;;24.17;60.50
8416;BME280;4245;42.120;24.732;2022-07-23T03:01:44;99407.81;;;24.20;61.92
8416;BME280;4245;42.120;24.732;2022-07-23T03:04:11;99412.00;;;24.22;60.55
8416;BME280;4245;42.120;24.732;2022-07-23T03:06:40;99412.53;;;24.33;60.17
8416;BME280;4245;42.120;24.732;2022-07-23T03:09:06;99405.63;;;24.30;60.08
8416;BME280;4245;42.120;24.732;2022-07-23T03:11:33;99414.22;;;24.34;60.09
8416;BME280;4245;42.120;24.732;2022-07-23T03:14:00;99409.38;;;24.29;59.79
8416;BME280;4245;42.120;24.732;2022-07-23T03:16:27;99413.19;;;24.35;60.30
8416;BME280;4245;42.120;24.732;2022-07-23T03:18:54;99408.66;;;24.42;59.92
8416;BME280;4245;42.120;24.732;2022-07-23T03:21:20;99412.47;;;24.47;58.82
8416;BME280;4245;42.120;24.732;2022-07-23T03:23:49;99416.66;;;24.50;58.97
8416;BME280;4245;42.120;24.732;2022-07-23T03:26:15;99416.66;;;24.50;58.94
8416;BME280;4245;42.120;24.732;2022-07-23T03:28:42;99418.19;;;24.52;58.89
8416;BME280;4245;42.120;24.732;2022-07-23T03:31:09;99418.13;;;24.67;58.43
8416;BME280;4245;42.120;24.732;2022-07-23T03:33:36;99423.47;;;24.82;57.38
8416;BME280;4245;42.120;24.732;2022-07-23T03:36:03;99423.16;;;24.70;57.27
8416;BME280;4245;42.120;24.732;2022-07-23T03:38:29;99420.06;;;24.52;57.47
8416;BME280;4245;42.120;24.732;2022-07-23T03:40:58;99418.53;;;24.28;58.06
8416;BME280;4245;42.120;24.732;2022-07-23T03:43:24;99417.31;;;24.16;59.01
8416;BME280;4245;42.120;24.732;2022-07-23T03:45:51;99419.53;;;24.06;59.75
8416;BME280;4245;42.120;24.732;2022-07-23T03:48:18;99427.72;;;24.12;60.91
8416;BME280;4245;42.120;24.732;2022-07-23T03:50:45;99420.69;;;24.33;60.10
8416;BME280;4245;42.120;24.732;2022-07-23T03:53:11;99423.75;;;24.44;59.39
8416;BME280;4245;42.120;24.732;2022-07-23T03:55:38;99420.56;;;24.62;59.08
8416;BME280;4245;42.120;24.732;2022-07-23T03:58:06;99423.84;;;24.79;58.42
8416;BME280;4245;42.120;24.732;2022-07-23T04:00:33;99423.03;;;24.99;57.09
8416;BME280;4245;42.120;24.732;2022-07-23T04:03:00;99424.78;;;25.07;57.53
8416;BME280;4245;42.120;24.732;2022-07-23T04:05:27;99429.06;;;25.23;56.46
8416;BME280;4245;42.120;24.732;2022-07-23T04:07:54;99431.94;;;25.15;56.79
8416;BME280;4245;42.120;24.732;2022-07-23T04:10:21;99429.91;;;25.23;56.83
8416;BME280;4245;42.120;24.732;2022-07-23T04:12:47;99429.56;;;25.33;56.08
8416;BME280;4245;42.120;24.732;2022-07-23T04:15:16;99431.16;;;25.21;56.71
8416;BME280;4245;42.120;24.732;2022-07-23T04:17:42;99431.53;;;25.18;56.75
8416;BME280;4245;42.120;24.732;2022-07-23T04:20:11;99427.94;;;25.10;56.32
8416;BME280;4245;42.120;24.732;2022-07-23T04:22:38;99426.00;;;25.04;57.37
8416;BME280;4245;42.120;24.732;2022-07-23T04:25:05;99435.00;;;25.33;56.20
8416;BME280;4245;42.120;24.732;2022-07-23T04:27:32;99431.25;;;25.34;55.90
8416;BME280;4245;42.120;24.732;2022-07-23T04:29:59;99429.44;;;25.47;55.72
8416;BME280;4245;42.120;24.732;2022-07-23T04:32:27;99433.97;;;25.62;54.94
8416;BME280;4245;42.120;24.732;2022-07-23T04:34:54;99434.84;;;25.69;54.69
8416;BME280;4245;42.120;24.732;2022-07-23T04:37:21;99439.78;;;25.93;54.46
8416;BME280;4245;42.120;24.732;2022-07-23T04:39:48;99442.75;;;26.05;52.96
8416;BME280;4245;42.120;24.732;2022-07-23T04:42:15;99438.75;;;25.94;53.30
8416;BME280;4245;42.120;24.732;2022-07-23T04:44:41;99436.03;;;25.94;53.34
8416;BME280;4245;42.120;24.732;2022-07-23T04:47:08;99431.81;;;25.85;53.28
8416;BME280;4245;42.120;24.732;2022-07-23T04:49:37;99435.34;;;25.85;54.28
8416;BME280;4245;42.120;24.732;2022-07-23T04:52:04;99434.16;;;26.01;53.16
8416;BME280;4245;42.120;24.732;2022-07-23T04:54:31;99439.63;;;26.01;53.49
8416;BME280;4245;42.120;24.732;2022-07-23T04:56:57;99441.25;;;25.95;53.68
8416;BME280;4245;42.120;24.732;2022-07-23T04:59:24;99446.41;;;26.18;53.17
8416;BME280;4245;42.120;24.732;2022-07-23T05:01:51;99439.78;;;26.41;52.56
8416;BME280;4245;42.120;24.732;2022-07-23T05:04:18;99440.47;;;26.56;51.54
8416;BME280;4245;42.120;24.732;2022-07-23T05:06:46;99448.06;;;26.67;51.33
8416;BME280;4245;42.120;24.732;2022-07-23T05:09:13;99439.88;;;26.67;51.05
8416;BME280;4245;42.120;24.732;2022-07-23T05:11:40;99433.97;;;26.57;50.44
8416;BME280;4245;42.120;24.732;2022-07-23T05:14:06;99436.22;;;26.40;51.68
8416;BME280;4245;42.120;24.732;2022-07-23T05:16:33;99435.84;;;26.50;50.60
8416;BME280;4245;42.120;24.732;2022-07-23T05:19:00;99439.78;;;26.41;51.86
8416;BME280;4245;42.120;24.732;2022-07-23T05:21:27;99428.97;;;26.80;50.39
8416;BME280;4245;42.120;24.732;2022-07-23T05:23:55;99432.38;;;26.95;50.33
8416;BME280;4245;42.120;24.732;2022-07-23T05:26:22;99431.75;;;27.19;48.39
8416;BME280;4245;42.120;24.732;2022-07-23T05:28:50;99440.56;;;26.95;49.91
8416;BME280;4245;42.120;24.732;2022-07-23T05:31:17;99443.91;;;26.91;49.80
8416;BME280;4245;42.120;24.732;2022-07-23T05:33:44;99436.59;;;26.91;49.69
8416;BME280;4245;42.120;24.732;2022-07-23T05:36:10;99435.94;;;26.89;50.55
8416;BME280;4245;42.120;24.732;2022-07-23T05:38:37;99434.69;;;27.18;49.54
8416;BME280;4245;42.120;24.732;2022-07-23T05:41:05;99431.31;;;27.42;49.43
8416;BME280;4245;42.120;24.732;2022-07-23T05:43:32;99430.81;;;27.85;48.43
8416;BME280;4245;42.120;24.732;2022-07-23T05:45:59;99430.97;;;28.03;47.63
8416;BME280;4245;42.120;24.732;2022-07-23T05:48:26;99429.47;;;28.07;47.40
8416;BME280;4245;42.120;24.732;2022-07-23T05:50:53;99435.78;;;28.14;47.04
8416;BME280;4245;42.120;24.732;2022-07-23T05:53:20;99430.41;;;28.32;46.74
8416;BME280;4245;42.120;24.732;2022-07-23T05:55:46;99432.75;;;28.35;46.82
8416;BME280;4245;42.120;24.732;2022-07-23T05:58:15;99435.25;;;28.68;46.37
8416;BME280;4245;42.120;24.732;2022-07-23T06:00:41;99438.28;;;28.91;45.66
8416;BME280;4245;42.120;24.732;2022-07-23T06:03:08;99444.78;;;29.22;44.71
8416;BME280;4245;42.120;24.732;2022-07-23T06:05:35;99445.09;;;29.39;44.11
8416;BME280;4245;42.120;24.732;2022-07-23T06:08:02;99445.19;;;29.50;43.30
8416;BME280;4245;42.120;24.732;2022-07-23T06:10:29;99444.16;;;29.45;43.40
8416;BME280;4245;42.120;24.732;2022-07-23T06:12:56;99446.63;;;29.53;42.93
8416;BME280;4245;42.120;24.732;2022-07-23T06:15:24;99443.91;;;29.53;43.08
8416;BME280;4245;42.120;24.732;2022-07-23T06:17:51;99444.34;;;29.68;42.65
8416;BME280;4245;42.120;24.732;2022-07-23T06:20:18;99443.44;;;29.74;42.32
8416;BME280;4245;42.120;24.732;2022-07-23T06:22:45;99442.09;;;29.83;42.31
8416;BME280;4245;42.120;24.732;2022-07-23T06:25:11;99441.97;;;30.14;41.35
8416;BME280;4245;42.120;24.732;2022-07-23T06:27:38;99448.09;;;30.28;41.19
8416;BME280;4245;42.120;24.732;2022-07-23T06:30:06;99440.09;;;30.27;41.30
8416;BME280;4245;42.120;24.732;2022-07-23T06:32:35;99436.28;;;30.46;40.58
8416;BME280;4245;42.120;24.732;2022-07-23T06:35:01;99444.75;;;30.44;40.81
8416;BME280;4245;42.120;24.732;2022-07-23T06:37:28;99437.34;;;30.63;40.39
8416;BME280;4245;42.120;24.732;2022-07-23T06:39:55;99443.53;;;30.70;40.62
8416;BME280;4245;42.120;24.732;2022-07-23T06:42:22;99442.88;;;30.86;40.73
8416;BME280;4245;42.120;24.732;2022-07-23T06:47:24;99441.31;;;31.67;38.91
8416;BME280;4245;42.120;24.732;2022-07-23T06:49:52;99439.41;;;31.79;37.86
8416;BME280;4245;42.120;24.732;2022-07-23T06:52:19;99433.66;;;31.34;38.54
8416;BME280;4245;42.120;24.732;2022-07-23T06:54:46;99428.81;;;31.71;38.45
8416;BME280;4245;42.120;24.732;2022-07-23T06:57:12;99432.69;;;31.98;37.55
8416;BME280;4245;42.120;24.732;2022-07-23T06:59:39;99430.06;;;31.91;37.23
8416;BME280;4245;42.120;24.732;2022-07-23T07:02:07;99417.66;;;31.77;37.44
8416;BME280;4245;42.120;24.732;2022-07-23T07:04:34;99419.47;;;31.72;37.75
8416;BME280;4245;42.120;24.732;2022-07-23T07:07:02;99419.06;;;32.03;37.25
8416;BME280;4245;42.120;24.732;2022-07-23T07:09:29;99415.31;;;32.21;36.84
8416;BME280;4245;42.120;24.732;2022-07-23T07:11:56;99413.19;;;32.51;36.43
8416;BME280;4245;42.120;24.732;2022-07-23T07:14:23;99418.06;;;32.49;36.52
8416;BME280;4245;42.120;24.732;2022-07-23T07:16:49;99419.66;;;32.45;36.54
8416;BME280;4245;42.120;24.732;2022-07-23T07:19:16;99411.84;;;32.82;36.37
8416;BME280;4245;42.120;24.732;2022-07-23T07:21:43;99409.19;;;33.04;35.17
8416;BME280;4245;42.120;24.732;2022-07-23T07:24:11;99415.28;;;33.39;34.62
8416;BME280;4245;42.120;24.732;2022-07-23T07:26:38;99413.16;;;33.63;34.46
8416;BME280;4245;42.120;24.732;2022-07-23T07:29:05;99410.34;;;33.96;34.07
8416;BME280;4245;42.120;24.732;2022-07-23T07:31:32;99413.88;;;34.35;33.49
8416;BME280;4245;42.120;24.732;2022-07-23T07:33:59;99410.94;;;34.42;33.50
8416;BME280;4245;42.120;24.732;2022-07-23T07:36:26;99408.75;;;34.71;32.75
8416;BME280;4245;42.120;24.732;2022-07-23T07:38:53;99394.13;;;35.02;32.12
8416;BME280;4245;42.120;24.732;2022-07-23T07:41:21;99401.88;;;35.37;31.47
8416;BME280;4245;42.120;24.732;2022-07-23T07:43:49;99406.03;;;35.77;31.10
8416;BME280;4245;42.120;24.732;2022-07-23T07:46:16;99398.50;;;36.19;29.94
8416;BME280;4245;42.120;24.732;2022-07-23T07:48:43;99400.22;;;36.35;29.69
8416;BME280;4245;42.120;24.732;2022-07-23T07:51:10;99400.97;;;36.15;29.89
8416;BME280;4245;42.120;24.732;2022-07-23T07:53:37;99392.00;;;35.98;30.03
8416;BME280;4245;42.120;24.732;2022-07-23T07:56:04;99395.97;;;36.17;29.96
8416;BME280;4245;42.120;24.732;2022-07-23T07:58:33;99394.16;;;36.53;29.74
8416;BME280;4245;42.120;24.732;2022-07-23T08:00:59;99393.41;;;36.93;28.58
8416;BME280;4245;42.120;24.732;2022-07-23T08:03:27;99390.31;;;36.75;28.17
8416;BME280;4245;42.120;24.732;2022-07-23T08:05:55;99387.84;;;36.63;29.23
8416;BME280;4245;42.120;24.732;2022-07-23T08:08:21;99390.63;;;37.09;28.16
8416;BME280;4245;42.120;24.732;2022-07-23T08:10:48;99385.06;;;37.29;27.96
8416;BME280;4245;42.120;24.732;2022-07-23T08:13:15;99398.06;;;37.64;27.73
8416;BME280;4245;42.120;24.732;2022-07-23T08:15:44;99394.59;;;38.12;27.02
8416;BME280;4245;42.120;24.732;2022-07-23T08:18:11;99394.28;;;38.19;26.45
8416;BME280;4245;42.120;24.732;2022-07-23T08:20:38;99390.81;;;38.47;26.41
8416;BME280;4245;42.120;24.732;2022-07-23T08:23:07;99383.88;;;38.84;24.91
8416;BME280;4245;42.120;24.732;2022-07-23T08:25:36;99383.47;;;38.66;25.60
8416;BME280;4245;42.120;24.732;2022-07-23T08:28:06;99377.53;;;37.75;26.29
8416;BME280;4245;42.120;24.732;2022-07-23T08:30:33;99375.00;;;37.78;26.95
8416;BME280;4245;42.120;24.732;2022-07-23T08:33:03;99377.25;;;38.36;25.96
8416;BME280;4245;42.120;24.732;2022-07-23T08:35:33;99377.66;;;38.14;25.01
8416;BME280;4245;42.120;24.732;2022-07-23T08:38:02;99370.00;;;37.85;24.76
8416;BME280;4245;42.120;24.732;2022-07-23T08:40:30;99367.28;;;37.70;24.53
8416;BME280;4245;42.120;24.732;2022-07-23T08:42:57;99361.72;;;38.35;24.82
8416;BME280;4245;42.120;24.732;2022-07-23T08:45:25;99357.53;;;38.81;24.12
8416;BME280;4245;42.120;24.732;2022-07-23T08:47:55;99356.47;;;39.11;23.81
8416;BME280;4245;42.120;24.732;2022-07-23T08:50:24;99362.47;;;39.76;22.56
8416;BME280;4245;42.120;24.732;2022-07-23T08:52:52;99351.00;;;39.59;22.84
8416;BME280;4245;42.120;24.732;2022-07-23T08:55:20;99360.00;;;39.74;22.56
8416;BME280;4245;42.120;24.732;2022-07-23T08:57:49;99358.06;;;40.17;22.06
8416;BME280;4245;42.120;24.732;2022-07-23T09:00:17;99347.91;;;40.08;22.41
8416;BME280;4245;42.120;24.732;2022-07-23T09:02:44;99351.28;;;39.57;22.65
8416;BME280;4245;42.120;24.732;2022-07-23T09:05:13;99348.13;;;40.11;21.97
8416;BME280;4245;42.120;24.732;2022-07-23T09:08:11;99344.56;;;40.99;21.48
8416;BME280;4245;42.120;24.732;2022-07-23T09:10:50;99343.25;;;40.78;21.22
8416;BME280;4245;42.120;24.732;2022-07-23T09:13:25;99342.44;;;40.40;21.63
8416;BME280;4245;42.120;24.732;2022-07-23T09:15:53;99338.94;;;41.04;21.03
8416;BME280;4245;42.120;24.732;2022-07-23T09:18:28;99351.13;;;41.68;20.56
8416;BME280;4245;42.120;24.732;2022-07-23T09:21:09;99355.25;;;41.84;20.12
8416;BME280;4245;42.120;24.732;2022-07-23T09:23:42;99343.06;;;41.94;19.37
8416;BME280;4245;42.120;24.732;2022-07-23T09:29:06;99345.72;;;41.85;18.74
8416;BME280;4245;42.120;24.732;2022-07-23T09:31:42;99346.53;;;42.13;18.85
8416;BME280;4245;42.120;24.732;2022-07-23T09:34:12;99351.28;;;42.62;18.56
8416;BME280;4245;42.120;24.732;2022-07-23T09:36:39;99340.47;;;42.83;18.67
8416;BME280;4245;42.120;24.732;2022-07-23T09:39:08;99331.19;;;42.96;18.19
8416;BME280;4245;42.120;24.732;2022-07-23T09:41:38;99338.28;;;43.24;17.71
8416;BME280;4245;42.120;24.732;2022-07-23T09:44:11;99328.66;;;43.79;17.12
8416;BME280;4245;42.120;24.732;2022-07-23T09:46:38;99327.91;;;44.04;17.02
8416;BME280;4245;42.120;24.732;2022-07-23T09:49:15;99328.31;;;44.28;17.02
8416;BME280;4245;42.120;24.732;2022-07-23T09:51:48;99329.47;;;44.53;16.20
8416;BME280;4245;42.120;24.732;2022-07-23T09:54:24;99323.84;;;44.79;15.76
8416;BME280;4245;42.120;24.732;2022-07-23T09:56:52;99321.16;;;45.08;15.48
8416;BME280;4245;42.120;24.732;2022-07-23T09:59:23;99331.41;;;45.59;15.08
8416;BME280;4245;42.120;24.732;2022-07-23T10:01:50;99322.94;;;45.68;15.28
8416;BME280;4245;42.120;24.732;2022-07-23T10:04:18;99324.72;;;45.81;14.97
8416;BME280;4245;42.120;24.732;2022-07-23T10:06:45;99325.06;;;45.71;15.11
8416;BME280;4245;42.120;24.732;2022-07-23T10:09:16;99319.69;;;45.57;15.78
8416;BME280;4245;42.120;24.732;2022-07-23T10:11:46;99314.03;;;45.66;14.86
8416;BME280;4245;42.120;24.732;2022-07-23T10:14:14;99325.63;;;45.94;14.77
8416;BME280;4245;42.120;24.732;2022-07-23T10:16:42;99318.22;;;45.51;14.77
8416;BME280;4245;42.120;24.732;2022-07-23T10:19:09;99310.00;;;45.37;14.82
8416;BME280;4245;42.120;24.732;2022-07-23T10:21:40;99310.38;;;45.27;14.59
8416;BME280;4245;42.120;24.732;2022-07-23T10:24:16;99305.91;;;45.35;14.64
8416;BME280;4245;42.120;24.732;2022-07-23T10:26:54;99311.00;;;45.50;14.69
8416;BME280;4245;42.120;24.732;2022-07-23T10:29:36;99307.81;;;46.10;14.38
8416;BME280;4245;42.120;24.732;2022-07-23T10:32:16;99311.22;;;45.95;13.83
8416;BME280;4245;42.120;24.732;2022-07-23T10:34:49;99307.56;;;46.03;14.10
8416;BME280;4245;42.120;24.732;2022-07-23T10:37:22;99308.63;;;46.61;13.66
8416;BME280;4245;42.120;24.732;2022-07-23T10:40:09;99298.22;;;46.94;13.33
8416;BME280;4245;42.120;24.732;2022-07-23T10:42:38;99293.22;;;47.12;13.66
8416;BME280;4245;42.120;24.732;2022-07-23T10:45:23;99295.63;;;47.34;13.09
8416;BME280;4245;42.120;24.732;2022-07-23T10:47:51;99288.22;;;46.85;13.30
8416;BME280;4245;42.120;24.732;2022-07-23T10:50:20;99288.31;;;46.35;13.06
8416;BME280;4245;42.120;24.732;2022-07-23T10:53:08;99271.13;;;45.95;14.02
8416;BME280;4245;42.120;24.732;2022-07-23T10:55:42;99278.97;;;46.01;13.91
8416;BME280;4245;42.120;24.732;2022-07-23T10:58:11;99270.03;;;46.08;14.02
8416;BME280;4245;42.120;24.732;2022-07-23T11:00:43;99272.63;;;45.92;14.12
8416;BME280;4245;42.120;24.732;2022-07-23T11:03:28;99266.59;;;45.73;14.45
8416;BME280;4245;42.120;24.732;2022-07-23T11:05:55;99266.25;;;46.45;14.22
8416;BME280;4245;42.120;24.732;2022-07-23T11:08:22;99259.34;;;47.21;14.05
8416;BME280;4245;42.120;24.732;2022-07-23T11:10:51;99260.78;;;47.51;13.55
8416;BME280;4245;42.120;24.732;2022-07-23T11:13:46;99259.63;;;47.28;13.33
8416;BME280;4245;42.120;24.732;2022-07-23T11:16:31;99250.19;;;47.11;13.50
8416;BME280;4245;42.120;24.732;2022-07-23T11:19:12;99255.53;;;47.62;12.92
8416;BME280;4245;42.120;24.732;2022-07-23T11:21:43;99245.94;;;48.15;12.52
8416;BME280;4245;42.120;24.732;2022-07-23T11:24:12;99245.53;;;48.41;12.76
8416;BME280;4245;42.120;24.732;2022-07-23T11:26:47;99241.59;;;48.73;12.45
8416;BME280;4245;42.120;24.732;2022-07-23T11:32:39;99244.91;;;48.91;11.78
8416;BME280;4245;42.120;24.732;2022-07-23T11:35:23;99247.28;;;49.20;11.25
8416;BME280;4245;42.120;24.732;2022-07-23T11:37:51;99233.84;;;48.14;11.71
8416;BME280;4245;42.120;24.732;2022-07-23T11:40:24;99227.03;;;48.15;11.73
8416;BME280;4245;42.120;24.732;2022-07-23T11:42:54;99232.13;;;48.38;11.52
8416;BME280;4245;42.120;24.732;2022-07-23T11:45:21;99235.81;;;48.54;11.42
8416;BME280;4245;42.120;24.732;2022-07-23T11:47:50;99234.25;;;48.41;11.53
8416;BME280;4245;42.120;24.732;2022-07-23T11:50:16;99227.44;;;48.42;11.90
8416;BME280;4245;42.120;24.732;2022-07-23T11:52:43;99225.88;;;48.32;11.75
8416;BME280;4245;42.120;24.732;2022-07-23T11:55:11;99227.06;;;48.03;11.74
8416;BME280;4245;42.120;24.732;2022-07-23T11:57:41;99223.88;;;48.17;11.70
8416;BME280;4245;42.120;24.732;2022-07-23T12:00:10;99222.19;;;48.56;11.92
8416;BME280;4245;42.120;24.732;2022-07-23T12:02:37;99219.34;;;47.88;11.71
8416;BME280;4245;42.120;24.732;2022-07-23T12:05:07;99216.19;;;46.92;12.59
8416;BME280;4245;42.120;24.732;2022-07-23T12:07:36;99217.75;;;46.36;12.63
8416;BME280;4245;42.120;24.732;2022-07-23T12:10:10;99211.66;;;45.93;13.21
8416;BME280;4245;42.120;24.732;2022-07-23T12:12:38;99212.69;;;46.30;12.61
8416;BME280;4245;42.120;24.732;2022-07-23T12:15:07;99210.09;;;46.04;12.65
8416;BME280;4245;42.120;24.732;2022-07-23T12:17:36;99213.25;;;46.23;12.89
8416;BME280;4245;42.120;24.732;2022-07-23T12:20:06;99205.28;;;47.03;12.38
8416;BME280;4245;42.120;24.732;2022-07-23T12:22:35;99196.03;;;47.02;12.43
8416;BME280;4245;42.120;24.732;2022-07-23T12:25:05;99199.56;;;47.24;12.72
8416;BME280;4245;42.120;24.732;2022-07-23T12:27:33;99196.31;;;47.34;12.26
8416;BME280;4245;42.120;24.732;2022-07-23T12:30:18;99193.94;;;47.24;12.42
8416;BME280;4245;42.120;24.732;2022-07-23T12:32:47;99190.19;;;47.32;12.19
8416;BME280;4245;42.120;24.732;2022-07-23T12:35:16;99177.34;;;46.61;12.46
8416;BME280;4245;42.120;24.732;2022-07-23T12:37:44;99177.00;;;46.87;12.06
8416;BME280;4245;42.120;24.732;2022-07-23T12:40:22;99179.28;;;46.94;12.06
8416;BME280;4245;42.120;24.732;2022-07-23T12:42:51;99164.47;;;46.85;12.43
8416;BME280;4245;42.120;24.732;2022-07-23T12:45:19;99166.50;;;46.51;12.65
8416;BME280;4245;42.120;24.732;2022-07-23T12:48:03;99163.09;;;47.03;12.55
8416;BME280;4245;42.120;24.732;2022-07-23T12:50:38;99164.63;;;47.25;12.27
8416;BME280;4245;42.120;24.732;2022-07-23T12:53:07;99159.47;;;46.90;12.46
8416;BME280;4245;42.120;24.732;2022-07-23T12:55:35;99155.72;;;47.23;12.62
8416;BME280;4245;42.120;24.732;2022-07-23T12:58:21;99162.16;;;47.47;12.17
8416;BME280;4245;42.120;24.732;2022-07-23T13:00:57;99149.22;;;46.61;12.42
8416;BME280;4245;42.120;24.732;2022-07-23T13:03:35;99141.19;;;45.65;13.39
8416;BME280;4245;42.120;24.732;2022-07-23T13:06:06;99137.41;;;46.23;13.04
8416;BME280;4245;42.120;24.732;2022-07-23T13:08:34;99137.00;;;45.92;12.98
8416;BME280;4245;42.120;24.732;2022-07-23T13:11:02;99130.13;;;45.89;13.32
8416;BME280;4245;42.120;24.732;2022-07-23T13:13:31;99127.66;;;46.20;13.30
8416;BME280;4245;42.120;24.732;2022-07-23T13:15:58;99126.41;;;46.09;12.40
8416;BME280;4245;42.120;24.732;2022-07-23T13:18:27;99125.09;;;45.24;12.44
8416;BME280;4245;42.120;24.732;2022-07-23T13:20:55;99124.59;;;44.46;13.54
8416;BME280;4245;42.120;24.732;2022-07-23T13:23:23;99120.91;;;44.71;13.44
8416;BME280;4245;42.120;24.732;2022-07-23T13:25:51;99131.06;;;44.84;13.60
8416;BME280;4245;42.120;24.732;2022-07-23T13:28:19;99118.06;;;45.38;13.03